Air Resources Laboratory banner image
Air Resources Laboratory web site National Oceanic and Atmospheric Administration (NOAA)

ri metar


KBID 180656Z AUTO 05004KT 10SM FEW026 OVC120 00/M08 A3022 RMK AO2 SLP239
 T00001083 FZRANO=
KPVD 180651Z AUTO 00000KT 10SM OVC070 M03/M09 A3024 RMK AO2 SLP240 T10281094=
KSFZ 180656Z AUTO 00000KT 10SM BKN070 M06/M11 A3021 RMK AO2 SLP180 T10561111
 FZRANO=
KUUU 180653Z AUTO 07003KT 10SM FEW045 BKN070 OVC110 M03/M12 A3022 RMK AO2
 SLP236 T10281122=
KWST 180653Z AUTO 03004KT 10SM FEW032 BKN110 M02/M09 A3023 RMK AO2 SLP236
 T10221094=